Time;durP1;ratioP1;P1;durP2;ratioP2;P2;SDS_P1;SDS_P2;PMS_P1;PMS_P2;Temp;Humidity;BMP_temperature;BMP_pressure;BME280_temperature;BME280_humidity;BME280_pressure;Samples;Min_cycle;Max_cycle;Signal;HPM_P1;HPM_P2
2023/01/26 00:02:11;;;;;;;;;;;;;;;2.26;100.00;100256.53;5072770;28;19916;-75
2023/01/26 00:04:36;;;;;;;;;;;;;;;1.41;100.00;100217.31;5072813;28;19916;-74
2023/01/26 00:07:01;;;;;;;;;;;;;;;0.35;100.00;100182.41;5072434;28;20412;-74
2023/01/26 00:09:27;;;;;;;;;;;;;;;0.67;100.00;100189.19;5071438;28;20823;-74
2023/01/26 00:11:52;;;;;;;;;;;;;;;2.30;100.00;100240.53;5053957;28;20335;-74
2023/01/26 00:14:17;;;;;;;;;;;;;;;0.96;100.00;100189.97;5073478;28;19982;-74
2023/01/26 00:16:42;;;;;;;;;;;;;;;0.66;100.00;100173.09;5072503;28;19971;-74
2023/01/26 00:19:08;;;;;;;;;;;;;;;1.06;100.00;100184.31;5072399;28;20010;-74
2023/01/26 00:21:33;;;;;;;;;;;;;;;0.79;100.00;100180.22;5055757;28;19935;-74
2023/01/26 00:23:59;;;;;;;;;;;;;;;0.55;100.00;100174.53;5072720;28;19908;-74
2023/01/26 00:26:24;;;;;;;;;;;;;;;0.45;100.00;100177.59;5072125;28;20358;-74
2023/01/26 00:28:50;;;;;;;;;;;;;;;0.24;100.00;100176.19;5056233;28;21016;-75
2023/01/26 00:31:18;;;;;;;;;;;;;;;0.31;100.00;100184.81;5052762;28;19920;-74
2023/01/26 00:33:43;;;;;;;;;;;;;;;1.25;100.00;100222.00;5051899;28;20458;-74
2023/01/26 00:36:08;;;;;;;;;;;;;;;1.93;100.00;100236.31;5072712;28;20020;-74
2023/01/26 00:38:33;;;;;;;;;;;;;;;1.07;100.00;100186.00;5052918;28;19959;-74
2023/01/26 00:40:58;;;;;;;;;;;;;;;0.87;100.00;100177.91;5055141;28;19969;-74
2023/01/26 00:43:24;;;;;;;;;;;;;;;1.26;100.00;100177.19;5054190;28;20003;-74
2023/01/26 00:45:49;;;;;;;;;;;;;;;1.32;100.00;100166.31;5071347;28;19974;-75
2023/01/26 00:48:14;;;;;;;;;;;;;;;0.05;100.00;100136.81;5072563;28;19924;-74
2023/01/26 00:50:39;;;;;;;;;;;;;;;0.18;100.00;100159.16;5071478;28;19931;-74
2023/01/26 00:53:05;;;;;;;;;;;;;;;0.41;100.00;100171.56;5048624;28;20003;-74
2023/01/26 00:55:33;;;;;;;;;;;;;;;-0.08;100.00;100160.91;5052652;28;19920;-74
2023/01/26 00:58:01;;;;;;;;;;;;;;;0.21;100.00;100178.63;5071614;28;19919;-74
2023/01/26 01:00:27;;;;;;;;;;;;;;;0.11;100.00;100180.03;5070744;28;19952;-74
2023/01/26 01:02:52;;;;;;;;;;;;;;;0.24;100.00;100191.38;5054872;28;20077;-75
2023/01/26 01:05:17;;;;;;;;;;;;;;;0.49;100.00;100197.16;5072442;28;19931;-75
2023/01/26 01:07:42;;;;;;;;;;;;;;;0.54;100.00;100198.13;5054041;28;19920;-75
2023/01/26 01:10:08;;;;;;;;;;;;;;;0.74;100.00;100201.22;5053214;28;19969;-74
2023/01/26 01:12:33;;;;;;;;;;;;;;;0.41;100.00;100202.88;5071812;28;19966;-74
2023/01/26 01:14:58;;;;;;;;;;;;;;;0.46;100.00;100200.47;5073242;28;19956;-74
2023/01/26 01:17:24;;;;;;;;;;;;;;;-0.33;100.00;100173.66;5072550;28;19921;-74
2023/01/26 01:19:49;;;;;;;;;;;;;;;-0.37;100.00;100184.50;5070563;28;19916;-75
2023/01/26 01:22:14;;;;;;;;;;;;;;;0.30;100.00;100199.16;5071529;28;19920;-75
2023/01/26 01:24:39;;;;;;;;;;;;;;;0.88;100.00;100214.25;5069334;28;19926;-74
2023/01/26 01:27:04;;;;;;;;;;;;;;;1.37;100.00;100224.00;5072923;28;19963;-75
2023/01/26 01:29:30;;;;;;;;;;;;;;;2.38;100.00;100234.75;5071860;28;19919;-75
2023/01/26 01:31:55;;;;;;;;;;;;;;;2.40;100.00;100206.00;5072723;28;19923;-74
2023/01/26 01:34:20;;;;;;;;;;;;;;;2.27;100.00;100160.81;5072275;28;19999;-75
2023/01/26 01:36:45;;;;;;;;;;;;;;;2.02;100.00;100127.25;5070107;28;19913;-75
2023/01/26 01:39:11;;;;;;;;;;;;;;;1.88;100.00;100098.19;5072360;28;19928;-75
2023/01/26 01:41:36;;;;;;;;;;;;;;;1.57;100.00;100064.50;5071159;28;19920;-74
2023/01/26 01:44:16;;;;;;;;;;;;;;;2.32;100.00;100085.50;5052110;28;19958;-75
2023/01/26 01:47:00;;;;;;;;;;;;;;;1.96;100.00;100063.66;5054732;28;19952;-75
2023/01/26 01:49:58;;;;;;;;;;;;;;;3.03;100.00;100072.28;5070600;28;19916;-74
2023/01/26 01:52:25;;;;;;;;;;;;;;;3.25;100.00;100047.19;5028212;28;20446;-75
2023/01/26 01:54:55;;;;;;;;;;;;;;;3.41;100.00;100015.16;5053257;28;19923;-75
2023/01/26 01:57:28;;;;;;;;;;;;;;;1.53;100.00;99958.69;5051968;28;19913;-75
2023/01/26 02:00:01;;;;;;;;;;;;;;;1.73;100.00;99968.34;5051821;28;19969;-75
2023/01/26 02:02:26;;;;;;;;;;;;;;;2.72;100.00;99980.25;5069997;28;19916;-74
2023/01/26 02:04:51;;;;;;;;;;;;;;;3.19;100.00;99975.81;5054050;28;19916;-75
2023/01/26 02:07:16;;;;;;;;;;;;;;;3.26;100.00;99950.47;5043894;28;19924;-74
2023/01/26 02:12:26;;;;;;;;;;;;;;;3.67;100.00;99913.59;5054976;28;19923;-75
2023/01/26 02:14:52;;;;;;;;;;;;;;;3.42;100.00;99876.81;5069975;28;19916;-75
2023/01/26 02:17:17;;;;;;;;;;;;;;;2.82;100.00;99864.22;5049339;28;19920;-75
2023/01/26 02:19:55;;;;;;;;;;;;;;;2.41;100.00;99861.09;5052254;28;19929;-75
2023/01/26 02:22:33;;;;;;;;;;;;;;;2.90;100.00;99877.91;5071205;28;19916;-75
2023/01/26 02:24:58;;;;;;;;;;;;;;;3.28;100.00;99894.47;5069874;28;19916;-75
2023/01/26 02:27:23;;;;;;;;;;;;;;;2.73;100.00;99870.03;5052549;28;19927;-75
2023/01/26 02:29:48;;;;;;;;;;;;;;;2.44;100.00;99862.03;5052834;28;19916;-75
2023/01/26 02:32:14;;;;;;;;;;;;;;;2.87;100.00;99866.81;5052746;28;20053;-75
2023/01/26 02:34:39;;;;;;;;;;;;;;;3.12;100.00;99865.44;5070693;28;20003;-75
2023/01/26 02:37:04;;;;;;;;;;;;;;;2.99;100.00;99863.56;5069372;28;19917;-74
2023/01/26 02:39:35;;;;;;;;;;;;;;;2.70;100.00;99849.66;5051462;28;19912;-75
2023/01/26 02:44:44;;;;;;;;;;;;;;;3.59;100.00;99865.13;5054528;28;19949;-75
2023/01/26 02:47:13;;;;;;;;;;;;;;;3.41;100.00;99844.56;5052489;28;19924;-75
2023/01/26 02:49:49;;;;;;;;;;;;;;;2.91;100.00;99831.25;5068803;28;20038;-75
2023/01/26 02:52:15;;;;;;;;;;;;;;;2.59;100.00;99835.94;5070671;28;20784;-75
2023/01/26 02:57:25;;;;;;;;;;;;;;;2.81;100.00;99854.91;5073277;28;19980;-75
2023/01/26 02:59:50;;;;;;;;;;;;;;;3.34;100.00;99858.91;5074120;28;19917;-75
2023/01/26 03:02:15;;;;;;;;;;;;;;;3.30;100.00;99850.38;5055375;28;19961;-74
2023/01/26 03:04:41;;;;;;;;;;;;;;;3.50;100.00;99852.28;5074059;28;19920;-74
2023/01/26 03:07:06;;;;;;;;;;;;;;;3.55;100.00;99848.94;5072904;28;20560;-74
2023/01/26 03:09:31;;;;;;;;;;;;;;;3.37;100.00;99840.28;5073362;28;19921;-74
2023/01/26 03:11:56;;;;;;;;;;;;;;;3.53;100.00;99839.59;5073099;28;19930;-74
2023/01/26 03:14:22;;;;;;;;;;;;;;;2.41;100.00;99815.34;5071587;28;20005;-74
2023/01/26 03:16:47;;;;;;;;;;;;;;;3.24;100.00;99854.53;5074982;28;20006;-74
2023/01/26 03:27:28;;;;;;;;;;;;;;;2.98;100.00;99846.63;5058121;28;20393;-76
2023/01/26 03:29:53;;;;;;;;;;;;;;;3.47;100.00;99854.81;5072800;28;19980;-74
2023/01/26 03:32:19;;;;;;;;;;;;;;;3.66;100.00;99850.75;5053219;28;19920;-74
2023/01/26 03:34:44;;;;;;;;;;;;;;;2.87;100.00;99826.13;5073731;28;20527;-74
2023/01/26 03:37:09;;;;;;;;;;;;;;;3.53;100.00;99854.88;5073167;28;20358;-75
2023/01/26 03:56:17;;;;;;;;;;;;;;;2.49;100.00;99827.34;5057473;28;20806;-75
2023/01/26 03:58:45;;;;;;;;;;;;;;;3.14;100.00;99851.03;5057373;28;20359;-74
2023/01/26 04:01:18;;;;;;;;;;;;;;;3.49;100.00;99845.47;5073709;28;20621;-75
2023/01/26 04:09:14;;;;;;;;;;;;;;;1.99;100.00;99852.84;5071527;28;19927;-75
2023/01/26 04:11:39;;;;;;;;;;;;;;;1.62;100.00;99867.47;5073458;28;19946;-75
2023/01/26 04:22:16;;;;;;;;;;;;;;;3.27;100.00;99908.06;5057191;28;19923;-75
2023/01/26 04:24:41;;;;;;;;;;;;;;;3.11;100.00;99902.78;5073069;28;19916;-75
2023/01/26 04:27:07;;;;;;;;;;;;;;;2.70;100.00;99876.78;5072580;28;20312;-75
2023/01/26 04:29:32;;;;;;;;;;;;;;;2.06;100.00;99869.03;5053170;28;20564;-75
2023/01/26 04:31:57;;;;;;;;;;;;;;;1.87;100.00;99888.19;5071841;28;19924;-75
2023/01/26 04:34:23;;;;;;;;;;;;;;;1.92;100.00;99901.00;5054628;28;19966;-75
2023/01/26 04:36:48;;;;;;;;;;;;;;;2.13;100.00;99911.50;5072121;28;19948;-75
2023/01/26 04:39:13;;;;;;;;;;;;;;;2.82;100.00;99929.50;5052922;28;19963;-75
2023/01/26 04:41:38;;;;;;;;;;;;;;;2.66;100.00;99913.16;5071883;28;19978;-75
2023/01/26 04:44:04;;;;;;;;;;;;;;;2.71;100.00;99911.53;5054711;28;19932;-75
2023/01/26 04:46:29;;;;;;;;;;;;;;;2.83;100.00;99906.66;5071050;28;19945;-75
2023/01/26 04:48:54;;;;;;;;;;;;;;;2.25;100.00;99895.59;5052923;28;19916;-75
2023/01/26 04:51:20;;;;;;;;;;;;;;;2.22;100.00;99895.56;5072295;28;19916;-75
2023/01/26 04:53:45;;;;;;;;;;;;;;;1.67;100.00;99906.47;5053430;28;19930;-74
2023/01/26 04:56:14;;;;;;;;;;;;;;;1.03;100.00;99913.69;5052605;28;19938;-75
2023/01/26 04:58:39;;;;;;;;;;;;;;;1.16;100.00;99930.00;5053343;28;20362;-74
2023/01/26 05:01:04;;;;;;;;;;;;;;;1.22;100.00;99947.88;5071038;28;19939;-74
2023/01/26 05:03:29;;;;;;;;;;;;;;;1.56;100.00;99979.03;5053920;28;20319;-75
2023/01/26 05:05:55;;;;;;;;;;;;;;;1.52;100.00;99982.34;5043967;28;20364;-75
2023/01/26 05:08:20;;;;;;;;;;;;;;;0.95;100.00;99978.59;5068938;28;20531;-75
2023/01/26 05:10:45;;;;;;;;;;;;;;;1.14;100.00;99994.22;5053562;28;20482;-75
2023/01/26 05:13:11;;;;;;;;;;;;;;;1.19;100.00;100013.81;5054665;28;19931;-74
2023/01/26 05:15:36;;;;;;;;;;;;;;;1.21;100.00;100022.31;5051896;28;19920;-75
2023/01/26 05:18:02;;;;;;;;;;;;;;;1.21;100.00;100036.69;5052928;28;20279;-75
2023/01/26 05:20:27;;;;;;;;;;;;;;;1.53;100.00;100057.69;5051953;28;20370;-75
2023/01/26 05:22:52;;;;;;;;;;;;;;;1.30;100.00;100051.22;5072397;28;20263;-74
2023/01/26 05:25:17;;;;;;;;;;;;;;;1.23;100.00;100053.66;5050621;28;19924;-75
2023/01/26 05:27:43;;;;;;;;;;;;;;;1.43;100.00;100063.38;5069788;28;19916;-75
2023/01/26 05:30:08;;;;;;;;;;;;;;;1.61;100.00;100079.00;5051107;28;20299;-74
2023/01/26 05:32:33;;;;;;;;;;;;;;;1.18;100.00;100075.50;5070699;28;20322;-75
2023/01/26 05:34:59;;;;;;;;;;;;;;;1.30;100.00;100079.13;5053699;28;19963;-75
2023/01/26 05:37:25;;;;;;;;;;;;;;;1.60;100.00;100090.00;5052661;28;20279;-74
2023/01/26 05:39:50;;;;;;;;;;;;;;;1.59;100.00;100090.78;5069743;28;19920;-75
2023/01/26 05:42:15;;;;;;;;;;;;;;;1.35;100.00;100090.28;5071197;28;19926;-74
2023/01/26 05:44:40;;;;;;;;;;;;;;;1.25;100.00;100089.19;5070357;28;19920;-76
2023/01/26 05:47:05;;;;;;;;;;;;;;;1.04;100.00;100090.41;5051867;28;19920;-75
2023/01/26 05:49:31;;;;;;;;;;;;;;;0.87;100.00;100106.91;5035917;28;19962;-75
2023/01/26 05:51:56;;;;;;;;;;;;;;;0.35;100.00;100096.25;5070919;28;19923;-75
2023/01/26 05:54:21;;;;;;;;;;;;;;;0.49;100.00;100114.38;5051343;28;19916;-75
2023/01/26 05:56:46;;;;;;;;;;;;;;;0.48;100.00;100132.06;5050601;28;19973;-75
2023/01/26 05:59:12;;;;;;;;;;;;;;;0.13;100.00;100140.41;5034531;28;19916;-75
2023/01/26 06:01:38;;;;;;;;;;;;;;;0.23;100.00;100160.94;5034177;28;19993;-75
2023/01/26 06:04:03;;;;;;;;;;;;;;;0.21;100.00;100178.63;5069332;28;20423;-74
2023/01/26 06:06:28;;;;;;;;;;;;;;;0.40;100.00;100200.28;5042695;28;19927;-74
2023/01/26 06:08:54;;;;;;;;;;;;;;;0.20;100.00;100207.31;5068888;28;20019;-75
2023/01/26 06:11:19;;;;;;;;;;;;;;;0.21;99.77;100219.16;5051728;28;19916;-75
2023/01/26 06:13:44;;;;;;;;;;;;;;;0.35;97.31;100238.16;5069565;28;19922;-74
2023/01/26 06:16:09;;;;;;;;;;;;;;;0.12;98.02;100236.63;5069896;28;19951;-74
2023/01/26 06:18:34;;;;;;;;;;;;;;;0.26;96.03;100250.56;5070805;28;19924;-74
2023/01/26 06:21:00;;;;;;;;;;;;;;;0.31;95.31;100261.69;5070796;28;19923;-75
2023/01/26 06:23:25;;;;;;;;;;;;;;;0.10;95.60;100261.06;5069873;28;19992;-75
2023/01/26 06:25:51;;;;;;;;;;;;;;;0.43;92.65;100283.13;5068619;28;20704;-75
2023/01/26 06:28:16;;;;;;;;;;;;;;;0.60;91.96;100305.63;5071535;28;20449;-74
2023/01/26 06:30:42;;;;;;;;;;;;;;;0.79;94.45;100303.63;5054226;28;19916;-75
2023/01/26 06:33:07;;;;;;;;;;;;;;;0.65;97.06;100294.75;5077112;28;20045;-75
2023/01/26 06:35:32;;;;;;;;;;;;;;;0.71;96.75;100295.81;5077221;28;20019;-74
2023/01/26 06:37:57;;;;;;;;;;;;;;;0.90;97.22;100306.47;5075334;28;19971;-74
2023/01/26 06:40:23;;;;;;;;;;;;;;;0.81;99.23;100296.91;5077121;28;20332;-74
2023/01/26 06:42:49;;;;;;;;;;;;;;;1.06;98.70;100305.22;5075104;28;19924;-75
2023/01/26 06:45:14;;;;;;;;;;;;;;;0.93;100.00;100304.00;5076293;28;19920;-74
2023/01/26 06:47:46;;;;;;;;;;;;;;;1.00;100.00;100301.69;5056930;28;20001;-75
2023/01/26 06:50:11;;;;;;;;;;;;;;;1.17;100.00;100308.91;5076180;28;20282;-74
2023/01/26 06:52:36;;;;;;;;;;;;;;;1.77;100.00;100318.06;5058431;28;19917;-74
2023/01/26 06:55:02;;;;;;;;;;;;;;;1.71;100.00;100311.16;5057507;28;19916;-74
2023/01/26 06:57:27;;;;;;;;;;;;;;;1.47;100.00;100288.53;5057227;28;20350;-74
2023/01/26 06:59:53;;;;;;;;;;;;;;;1.28;100.00;100268.56;5076112;28;20366;-75
2023/01/26 07:02:18;;;;;;;;;;;;;;;1.44;100.00;100265.63;5057622;28;19942;-75
2023/01/26 07:04:44;;;;;;;;;;;;;;;1.61;100.00;100264.34;5075797;28;19935;-75
2023/01/26 07:07:09;;;;;;;;;;;;;;;1.47;100.00;100258.06;5058840;28;19927;-75
2023/01/26 07:09:35;;;;;;;;;;;;;;;1.39;100.00;100244.31;5075465;28;19920;-76
2023/01/26 07:12:00;;;;;;;;;;;;;;;1.31;100.00;100248.38;5060190;28;20828;-73
2023/01/26 07:14:25;;;;;;;;;;;;;;;1.31;100.00;100250.91;5077492;28;19966;-75
2023/01/26 07:16:50;;;;;;;;;;;;;;;1.20;100.00;100248.06;5075991;28;19916;-74
2023/01/26 07:19:17;;;;;;;;;;;;;;;1.03;100.00;100250.19;5052047;28;20209;-74
2023/01/26 07:21:42;;;;;;;;;;;;;;;0.77;100.00;100250.31;5074577;28;19916;-73
2023/01/26 07:24:08;;;;;;;;;;;;;;;1.04;100.00;100256.97;5077089;28;19920;-73
2023/01/26 07:26:33;;;;;;;;;;;;;;;1.15;100.00;100265.72;5055570;28;19920;-73
2023/01/26 07:28:58;;;;;;;;;;;;;;;1.42;100.00;100270.66;5057577;28;19920;-73
2023/01/26 07:31:24;;;;;;;;;;;;;;;1.18;100.00;100270.00;5076268;28;20003;-73
2023/01/26 07:33:49;;;;;;;;;;;;;;;1.48;100.00;100277.53;5058386;28;19921;-73
2023/01/26 07:36:14;;;;;;;;;;;;;;;1.50;100.00;100270.84;5075708;28;19916;-74
2023/01/26 07:38:39;;;;;;;;;;;;;;;1.70;100.00;100270.47;5074039;28;20390;-75
2023/01/26 07:41:06;;;;;;;;;;;;;;;1.61;100.00;100266.03;5075051;28;20317;-73
2023/01/26 07:43:32;;;;;;;;;;;;;;;1.22;100.00;100252.38;5052253;28;19965;-73
2023/01/26 07:45:57;;;;;;;;;;;;;;;1.80;100.00;100272.41;5072728;28;19920;-73
2023/01/26 07:48:23;;;;;;;;;;;;;;;2.04;100.00;100267.06;5072351;28;19916;-73
2023/01/26 07:50:48;;;;;;;;;;;;;;;2.22;100.00;100267.47;5072556;28;19923;-73
2023/01/26 07:53:14;;;;;;;;;;;;;;;2.05;100.00;100249.31;5071818;28;20386;-73
2023/01/26 07:55:42;;;;;;;;;;;;;;;2.61;100.00;100255.56;5051797;28;19919;-73
2023/01/26 07:58:07;;;;;;;;;;;;;;;1.33;100.00;100206.97;5074256;28;19926;-73
2023/01/26 08:00:33;;;;;;;;;;;;;;;1.58;100.00;100210.09;5053989;28;19991;-73
2023/01/26 08:02:58;;;;;;;;;;;;;;;2.31;100.00;100236.31;5073881;28;19916;-73
2023/01/26 08:05:23;;;;;;;;;;;;;;;1.94;100.00;100216.84;5073249;28;19927;-73
2023/01/26 08:07:48;;;;;;;;;;;;;;;1.59;100.00;100202.50;5073663;28;20471;-73
2023/01/26 08:10:14;;;;;;;;;;;;;;;1.48;100.00;100203.09;5054166;28;19944;-73
2023/01/26 08:12:39;;;;;;;;;;;;;;;1.71;100.00;100216.31;5072951;28;19927;-73
2023/01/26 08:15:04;;;;;;;;;;;;;;;1.86;100.00;100214.13;5069741;28;20273;-73
2023/01/26 08:17:29;;;;;;;;;;;;;;;1.88;100.00;100220.13;5072816;28;20384;-75
2023/01/26 08:19:55;;;;;;;;;;;;;;;2.35;100.00;100233.00;5047228;28;19916;-74
2023/01/26 08:22:20;;;;;;;;;;;;;;;2.49;100.00;100221.44;5054095;28;19956;-74
2023/01/26 08:24:45;;;;;;;;;;;;;;;2.23;100.00;100200.53;5052950;28;19932;-74
2023/01/26 08:27:10;;;;;;;;;;;;;;;2.38;100.00;100201.72;5071407;28;19920;-74
2023/01/26 08:29:36;;;;;;;;;;;;;;;2.60;100.00;100202.97;5071358;28;19955;-74
2023/01/26 08:32:01;;;;;;;;;;;;;;;2.08;100.00;100178.22;5071152;28;19916;-75
2023/01/26 08:34:26;;;;;;;;;;;;;;;2.29;100.00;100192.19;5053290;28;19993;-74
2023/01/26 08:36:51;;;;;;;;;;;;;;;2.35;100.00;100189.78;5072478;28;19923;-74
2023/01/26 08:39:17;;;;;;;;;;;;;;;1.99;100.00;100172.94;5032077;28;20347;-74
2023/01/26 08:41:42;;;;;;;;;;;;;;;2.23;100.00;100184.44;5072556;28;19916;-73
2023/01/26 08:44:08;;;;;;;;;;;;;;;2.53;100.00;100180.78;5071337;28;19917;-73
2023/01/26 08:46:33;;;;;;;;;;;;;;;2.62;100.00;100186.06;5070841;28;19917;-73
2023/01/26 08:48:58;;;;;;;;;;;;;;;2.51;100.00;100166.38;5051600;28;19936;-73
2023/01/26 08:51:24;;;;;;;;;;;;;;;2.45;100.00;100171.34;5069737;28;19969;-73
2023/01/26 08:53:49;;;;;;;;;;;;;;;2.78;100.00;100177.88;5071971;28;19916;-73
2023/01/26 08:56:14;;;;;;;;;;;;;;;2.26;100.00;100154.03;5068479;28;19923;-74
2023/01/26 08:58:39;;;;;;;;;;;;;;;2.12;100.00;100160.47;5051585;28;19922;-74
2023/01/26 09:01:05;;;;;;;;;;;;;;;1.99;100.00;100159.38;5051846;28;20008;-73
2023/01/26 09:03:30;;;;;;;;;;;;;;;2.05;100.00;100172.19;5070271;28;19917;-73
2023/01/26 09:05:58;;;;;;;;;;;;;;;1.83;100.00;100191.22;5044144;28;19920;-72
2023/01/26 09:08:23;;;;;;;;;;;;;;;1.59;100.00;100181.34;5051393;28;20009;-73
2023/01/26 09:10:48;;;;;;;;;;;;;;;1.73;100.00;100199.44;5071126;28;20421;-74
2023/01/26 09:13:13;;;;;;;;;;;;;;;1.93;100.00;100223.59;5051553;28;20451;-73
2023/01/26 09:15:38;;;;;;;;;;;;;;;2.01;100.00;100222.09;5069397;28;19922;-73
2023/01/26 09:18:04;;;;;;;;;;;;;;;2.18;100.00;100239.41;5071283;28;20070;-73
2023/01/26 09:20:29;;;;;;;;;;;;;;;2.53;100.00;100241.81;5069644;28;19927;-73
2023/01/26 09:22:54;;;;;;;;;;;;;;;2.27;100.00;100229.44;5070495;28;20321;-72
2023/01/26 09:25:19;;;;;;;;;;;;;;;1.76;100.00;100227.47;5069518;28;20426;-73
2023/01/26 09:27:45;;;;;;;;;;;;;;;1.78;100.00;100233.41;5051843;28;20370;-73
2023/01/26 09:30:10;;;;;;;;;;;;;;;1.47;100.00;100237.75;5069135;28;20568;-72
2023/01/26 09:32:35;;;;;;;;;;;;;;;1.52;100.00;100250.56;5052258;28;20353;-73
2023/01/26 09:35:00;;;;;;;;;;;;;;;1.43;100.00;100257.13;5070524;28;19923;-74
2023/01/26 09:37:26;;;;;;;;;;;;;;;1.95;100.00;100277.84;5052118;28;20477;-74
2023/01/26 09:39:51;;;;;;;;;;;;;;;1.99;100.00;100294.88;5067739;28;20278;-74
2023/01/26 09:42:22;;;;;;;;;;;;;;;1.97;100.00;100301.63;5070390;28;20087;-74
2023/01/26 09:45:08;;;;;;;;;;;;;;;2.06;100.00;100309.44;5070352;28;21322;-74
2023/01/26 09:47:36;;;;;;;;;;;;;;;2.25;100.00;100317.50;5053288;28;19927;-74
2023/01/26 09:50:02;;;;;;;;;;;;;;;2.03;100.00;100301.78;5068525;28;19978;-74
2023/01/26 09:52:39;;;;;;;;;;;;;;;2.51;100.00;100321.50;5044910;28;20055;-74
2023/01/26 09:55:05;;;;;;;;;;;;;;;2.38;100.00;100298.31;5052416;28;19916;-74
2023/01/26 09:57:46;;;;;;;;;;;;;;;2.30;100.00;100300.66;5051364;28;19916;-73
2023/01/26 10:00:12;;;;;;;;;;;;;;;2.08;100.00;100279.00;5049830;28;20293;-74
2023/01/26 10:02:43;;;;;;;;;;;;;;;2.14;100.00;100286.75;5067183;28;19912;-73
2023/01/26 10:05:18;;;;;;;;;;;;;;;2.19;100.00;100267.41;5067337;28;19924;-73
2023/01/26 10:07:44;;;;;;;;;;;;;;;2.17;100.00;100273.28;5058398;28;19931;-73
2023/01/26 10:10:12;;;;;;;;;;;;;;;2.49;100.00;100279.06;5049272;28;19916;-73
2023/01/26 10:12:38;;;;;;;;;;;;;;;2.74;100.00;100290.59;5052823;28;19916;-73
2023/01/26 10:15:03;;;;;;;;;;;;;;;2.51;100.00;100270.63;5067448;28;20397;-73
2023/01/26 10:17:35;;;;;;;;;;;;;;;2.70;100.00;100276.09;5068327;28;19916;-74
2023/01/26 10:20:19;;;;;;;;;;;;;;;2.57;100.00;100264.81;5051703;28;19917;-73
2023/01/26 10:22:46;;;;;;;;;;;;;;;2.58;100.00;100261.44;5069664;28;20386;-73
2023/01/26 10:25:13;;;;;;;;;;;;;;;2.55;100.00;100251.19;5053571;28;19923;-74
2023/01/26 10:27:38;;;;;;;;;;;;;;;2.51;100.00;100249.44;5051932;28;20010;-73
2023/01/26 10:30:04;;;;;;;;;;;;;;;2.50;100.00;100251.09;5070935;28;20560;-73
2023/01/26 10:32:29;;;;;;;;;;;;;;;2.97;100.00;100254.56;5068993;28;19917;-73
2023/01/26 10:34:54;;;;;;;;;;;;;;;2.89;100.00;100245.09;5050664;28;19991;-73
2023/01/26 10:37:25;;;;;;;;;;;;;;;2.71;100.00;100226.94;5070833;28;19959;-73
2023/01/26 10:40:00;;;;;;;;;;;;;;;2.57;100.00;100220.72;5052229;28;19920;-73
2023/01/26 10:42:30;;;;;;;;;;;;;;;2.34;100.00;100210.94;5040635;28;20609;-74
2023/01/26 10:44:55;;;;;;;;;;;;;;;1.72;100.00;100212.97;5048019;28;20442;-74
2023/01/26 10:47:21;;;;;;;;;;;;;;;1.78;100.00;100228.31;5066288;28;20050;-73
2023/01/26 10:49:46;;;;;;;;;;;;;;;2.25;100.00;100249.72;5049681;28;20007;-73
2023/01/26 10:52:16;;;;;;;;;;;;;;;1.68;100.00;100238.28;5048487;28;19923;-73
2023/01/26 10:54:43;;;;;;;;;;;;;;;1.95;100.00;100264.28;5048799;28;19916;-73
2023/01/26 10:57:27;;;;;;;;;;;;;;;1.84;100.00;100272.50;5048986;28;19922;-74
2023/01/26 10:59:52;;;;;;;;;;;;;;;1.62;100.00;100268.63;5066878;28;19912;-73
2023/01/26 11:02:27;;;;;;;;;;;;;;;1.63;100.00;100282.16;5068130;28;19988;-73
2023/01/26 11:05:08;;;;;;;;;;;;;;;1.47;100.00;100283.47;5049917;28;19927;-73
2023/01/26 11:07:34;;;;;;;;;;;;;;;1.85;98.83;100303.88;5067341;28;20023;-73
2023/01/26 11:10:32;;;;;;;;;;;;;;;1.54;100.00;100292.94;5049412;28;19916;-73
2023/01/26 11:13:13;;;;;;;;;;;;;;;1.85;97.17;100316.56;5032983;28;20434;-73
2023/01/26 11:15:39;;;;;;;;;;;;;;;2.43;95.89;100333.16;5046192;28;19938;-73
2023/01/26 11:18:11;;;;;;;;;;;;;;;1.85;100.00;100314.03;5053468;28;19931;-74
2023/01/26 11:20:39;;;;;;;;;;;;;;;2.32;98.99;100324.44;5071230;28;19916;-74
2023/01/26 11:23:27;;;;;;;;;;;;;;;1.92;100.00;100303.19;5072453;28;19930;-74
2023/01/26 11:26:28;;;;;;;;;;;;;;;1.93;99.57;100309.97;5047701;28;19960;-73
2023/01/26 11:29:12;;;;;;;;;;;;;;;1.98;99.78;100308.41;5015462;28;19959;-74
2023/01/26 11:31:40;;;;;;;;;;;;;;;2.13;99.68;100312.16;5064782;28;19918;-74
2023/01/26 11:34:09;;;;;;;;;;;;;;;2.17;98.72;100316.47;5078666;28;19916;-73
2023/01/26 11:36:47;;;;;;;;;;;;;;;2.04;99.55;100312.78;5078966;28;19916;-73
2023/01/26 11:39:13;;;;;;;;;;;;;;;2.17;98.47;100313.94;5093778;28;19920;-73
2023/01/26 11:41:38;;;;;;;;;;;;;;;2.44;98.02;100331.47;5093903;28;19912;-74
2023/01/26 11:44:22;;;;;;;;;;;;;;;2.25;100.00;100320.03;5093864;28;19922;-73
2023/01/26 11:46:56;;;;;;;;;;;;;;;1.82;100.00;100299.56;5093909;28;20672;-73
2023/01/26 11:49:28;;;;;;;;;;;;;;;2.11;98.51;100311.25;5093726;28;19913;-73
2023/01/26 11:52:12;;;;;;;;;;;;;;;1.89;97.71;100308.19;5075625;28;19920;-73
2023/01/26 11:54:38;;;;;;;;;;;;;;;2.07;95.61;100328.94;5093697;28;19954;-73
2023/01/26 11:57:09;;;;;;;;;;;;;;;1.97;96.29;100326.16;5075404;28;19956;-73
2023/01/26 11:59:41;;;;;;;;;;;;;;;1.80;96.44;100328.28;5108227;28;19973;-73
2023/01/26 12:02:25;;;;;;;;;;;;;;;1.74;94.32;100335.75;5095896;28;19995;-73
2023/01/26 12:04:51;;;;;;;;;;;;;;;1.78;92.85;100335.00;5113872;28;20386;-73
2023/01/26 12:07:29;;;;;;;;;;;;;;;1.61;92.65;100340.50;5091772;28;19936;-73
2023/01/26 12:09:55;;;;;;;;;;;;;;;1.64;91.74;100348.22;5075350;28;19919;-74
2023/01/26 12:12:26;;;;;;;;;;;;;;;1.71;90.92;100361.06;5075343;28;19935;-73
2023/01/26 12:14:54;;;;;;;;;;;;;;;1.44;92.20;100355.31;5075121;28;19974;-73
2023/01/26 12:17:37;;;;;;;;;;;;;;;1.50;90.48;100368.97;5093455;28;19959;-73
2023/01/26 12:20:18;;;;;;;;;;;;;;;1.33;90.44;100371.09;5093147;28;20006;-73
2023/01/26 12:22:48;;;;;;;;;;;;;;;1.59;89.45;100387.84;5092087;28;19912;-73
2023/01/26 12:25:16;;;;;;;;;;;;;;;1.30;90.25;100381.13;5074987;28;19912;-73
2023/01/26 12:28:00;;;;;;;;;;;;;;;1.48;88.40;100401.09;5092962;28;19920;-73
2023/01/26 12:30:29;;;;;;;;;;;;;;;1.55;88.47;100403.84;5072590;28;19950;-73
2023/01/26 12:32:55;;;;;;;;;;;;;;;1.47;88.69;100402.75;5054987;28;19916;-73
2023/01/26 12:35:31;;;;;;;;;;;;;;;1.23;88.80;100406.34;5054722;28;19919;-73
2023/01/26 12:38:04;;;;;;;;;;;;;;;1.34;87.53;100424.41;5066144;28;19912;-73
2023/01/26 12:40:33;;;;;;;;;;;;;;;1.48;86.98;100431.53;5071453;28;19956;-73
2023/01/26 12:42:59;;;;;;;;;;;;;;;1.44;87.51;100436.53;5087766;28;19988;-73
2023/01/26 12:45:26;;;;;;;;;;;;;;;1.66;87.61;100448.13;5092773;28;19958;-73
2023/01/26 12:47:52;;;;;;;;;;;;;;;1.64;88.21;100444.72;5092780;28;19913;-73
2023/01/26 12:50:30;;;;;;;;;;;;;;;1.49;88.36;100434.13;5074652;28;19939;-73
2023/01/26 12:53:14;;;;;;;;;;;;;;;1.25;89.29;100432.63;5092693;28;20285;-74
2023/01/26 12:55:50;;;;;;;;;;;;;;;1.50;88.16;100440.06;5080372;28;19912;-73
2023/01/26 12:58:17;;;;;;;;;;;;;;;1.57;87.65;100455.50;5054454;28;20489;-74
2023/01/26 13:00:49;;;;;;;;;;;;;;;1.96;87.51;100475.22;5054408;28;19912;-73
2023/01/26 13:03:16;;;;;;;;;;;;;;;1.93;89.43;100471.72;5054424;28;19947;-73
2023/01/26 13:05:55;;;;;;;;;;;;;;;1.88;90.85;100469.91;5054242;28;20414;-73
2023/01/26 13:08:29;;;;;;;;;;;;;;;1.85;91.75;100463.91;5071976;28;19927;-73
2023/01/26 13:10:55;;;;;;;;;;;;;;;1.96;91.74;100467.59;5073563;28;19969;-73
2023/01/26 13:13:20;;;;;;;;;;;;;;;2.14;91.87;100468.88;5094446;28;19919;-73
2023/01/26 13:15:45;;;;;;;;;;;;;;;1.99;92.86;100457.50;5112595;28;20365;-73
2023/01/26 13:18:17;;;;;;;;;;;;;;;2.21;93.58;100463.09;5077623;28;19912;-73
2023/01/26 13:20:45;;;;;;;;;;;;;;;2.13;94.65;100445.13;5112471;28;20006;-73
2023/01/26 13:23:29;;;;;;;;;;;;;;;2.21;95.29;100447.88;5099983;28;19912;-74
2023/01/26 13:26:11;;;;;;;;;;;;;;;2.13;96.79;100436.66;5091830;28;20301;-73
2023/01/26 13:28:36;;;;;;;;;;;;;;;2.18;97.24;100435.09;5092317;28;19923;-73
2023/01/26 13:31:02;;;;;;;;;;;;;;;2.05;97.62;100427.16;5065772;28;19912;-73